sensor_id;sensor_type;location;lat;lon;timestamp;P1;durP1;ratioP1;P2;durP2;ratioP2
76574;SDS011;65439;50.948;6.988;2023-07-29T00:01:41;5.82;;;2.45;;
76574;SDS011;65439;50.948;6.988;2023-07-29T00:04:07;3.27;;;2.27;;
76574;SDS011;65439;50.948;6.988;2023-07-29T00:06:33;6.88;;;2.53;;
76574;SDS011;65439;50.948;6.988;2023-07-29T00:08:59;2.95;;;2.63;;
76574;SDS011;65439;50.948;6.988;2023-07-29T00:11:24;5.17;;;2.40;;
76574;SDS011;65439;50.948;6.988;2023-07-29T00:13:49;3.10;;;2.60;;
76574;SDS011;65439;50.948;6.988;2023-07-29T00:16:15;6.25;;;2.53;;
76574;SDS011;65439;50.948;6.988;2023-07-29T00:18:42;5.63;;;2.42;;
76574;SDS011;65439;50.948;6.988;2023-07-29T00:21:07;3.35;;;3.05;;
76574;SDS011;65439;50.948;6.988;2023-07-29T00:23:33;4.00;;;2.40;;
76574;SDS011;65439;50.948;6.988;2023-07-29T00:25:58;4.90;;;3.07;;
76574;SDS011;65439;50.948;6.988;2023-07-29T00:28:23;4.05;;;3.58;;
76574;SDS011;65439;50.948;6.988;2023-07-29T00:30:49;6.13;;;4.07;;
76574;SDS011;65439;50.948;6.988;2023-07-29T00:33:14;5.90;;;4.27;;
76574;SDS011;65439;50.948;6.988;2023-07-29T00:35:39;6.50;;;4.03;;
76574;SDS011;65439;50.948;6.988;2023-07-29T00:38:05;4.27;;;3.77;;
76574;SDS011;65439;50.948;6.988;2023-07-29T00:40:30;6.33;;;2.87;;
76574;SDS011;65439;50.948;6.988;2023-07-29T00:42:55;4.85;;;3.65;;
76574;SDS011;65439;50.948;6.988;2023-07-29T00:45:21;5.63;;;3.45;;
76574;SDS011;65439;50.948;6.988;2023-07-29T00:47:48;6.32;;;5.18;;
76574;SDS011;65439;50.948;6.988;2023-07-29T00:50:14;7.72;;;4.32;;
76574;SDS011;65439;50.948;6.988;2023-07-29T00:52:39;4.28;;;3.60;;
76574;SDS011;65439;50.948;6.988;2023-07-29T00:55:05;5.07;;;3.92;;
76574;SDS011;65439;50.948;6.988;2023-07-29T00:57:31;4.30;;;3.60;;
76574;SDS011;65439;50.948;6.988;2023-07-29T00:59:58;4.72;;;3.40;;
76574;SDS011;65439;50.948;6.988;2023-07-29T01:02:24;4.85;;;3.80;;
76574;SDS011;65439;50.948;6.988;2023-07-29T01:04:53;6.80;;;4.83;;
76574;SDS011;65439;50.948;6.988;2023-07-29T01:07:29;7.20;;;6.50;;
76574;SDS011;65439;50.948;6.988;2023-07-29T01:10:01;7.20;;;6.10;;
76574;SDS011;65439;50.948;6.988;2023-07-29T01:17:43;5.97;;;5.32;;
76574;SDS011;65439;50.948;6.988;2023-07-29T01:20:13;4.32;;;3.75;;
76574;SDS011;65439;50.948;6.988;2023-07-29T01:22:39;6.35;;;4.25;;
76574;SDS011;65439;50.948;6.988;2023-07-29T01:25:05;4.57;;;4.03;;
76574;SDS011;65439;50.948;6.988;2023-07-29T01:27:31;10.30;;;5.85;;
76574;SDS011;65439;50.948;6.988;2023-07-29T01:29:57;7.13;;;4.80;;
76574;SDS011;65439;50.948;6.988;2023-07-29T01:32:28;5.13;;;4.05;;
76574;SDS011;65439;50.948;6.988;2023-07-29T01:37:59;7.90;;;4.55;;
76574;SDS011;65439;50.948;6.988;2023-07-29T01:40:28;7.53;;;5.95;;
76574;SDS011;65439;50.948;6.988;2023-07-29T01:42:54;9.70;;;5.15;;
76574;SDS011;65439;50.948;6.988;2023-07-29T01:45:22;6.43;;;5.50;;
76574;SDS011;65439;50.948;6.988;2023-07-29T01:47:48;5.80;;;5.25;;
76574;SDS011;65439;50.948;6.988;2023-07-29T01:50:13;6.60;;;5.20;;
76574;SDS011;65439;50.948;6.988;2023-07-29T01:52:39;6.30;;;4.90;;
76574;SDS011;65439;50.948;6.988;2023-07-29T01:55:04;15.23;;;12.80;;
76574;SDS011;65439;50.948;6.988;2023-07-29T01:57:30;8.32;;;6.82;;
76574;SDS011;65439;50.948;6.988;2023-07-29T01:59:55;6.70;;;4.90;;
76574;SDS011;65439;50.948;6.988;2023-07-29T02:02:20;6.70;;;4.63;;
76574;SDS011;65439;50.948;6.988;2023-07-29T02:04:45;6.37;;;5.47;;
76574;SDS011;65439;50.948;6.988;2023-07-29T02:07:16;14.05;;;6.82;;
76574;SDS011;65439;50.948;6.988;2023-07-29T02:09:41;11.35;;;5.88;;
76574;SDS011;65439;50.948;6.988;2023-07-29T02:12:07;6.65;;;5.53;;
76574;SDS011;65439;50.948;6.988;2023-07-29T02:14:32;9.15;;;6.20;;
76574;SDS011;65439;50.948;6.988;2023-07-29T02:16:58;7.37;;;5.80;;
76574;SDS011;65439;50.948;6.988;2023-07-29T02:19:23;5.63;;;4.83;;
76574;SDS011;65439;50.948;6.988;2023-07-29T02:21:48;7.80;;;5.77;;
76574;SDS011;65439;50.948;6.988;2023-07-29T02:24:14;5.68;;;4.50;;
76574;SDS011;65439;50.948;6.988;2023-07-29T02:26:39;5.00;;;4.50;;
76574;SDS011;65439;50.948;6.988;2023-07-29T02:29:04;7.63;;;4.27;;
76574;SDS011;65439;50.948;6.988;2023-07-29T02:31:30;5.50;;;3.72;;
76574;SDS011;65439;50.948;6.988;2023-07-29T02:33:55;3.80;;;2.97;;
76574;SDS011;65439;50.948;6.988;2023-07-29T02:36:20;4.72;;;2.70;;
76574;SDS011;65439;50.948;6.988;2023-07-29T02:38:46;5.13;;;3.40;;
76574;SDS011;65439;50.948;6.988;2023-07-29T02:41:11;3.40;;;2.20;;
76574;SDS011;65439;50.948;6.988;2023-07-29T02:43:41;3.67;;;2.50;;
76574;SDS011;65439;50.948;6.988;2023-07-29T02:46:07;5.10;;;3.08;;
76574;SDS011;65439;50.948;6.988;2023-07-29T02:48:33;4.22;;;3.25;;
76574;SDS011;65439;50.948;6.988;2023-07-29T02:50:58;3.67;;;2.13;;
76574;SDS011;65439;50.948;6.988;2023-07-29T02:53:24;3.90;;;2.67;;
76574;SDS011;65439;50.948;6.988;2023-07-29T02:55:49;3.00;;;2.15;;
76574;SDS011;65439;50.948;6.988;2023-07-29T02:58:15;2.95;;;2.00;;
76574;SDS011;65439;50.948;6.988;2023-07-29T03:00:40;2.60;;;2.00;;
76574;SDS011;65439;50.948;6.988;2023-07-29T03:03:07;3.92;;;2.70;;
76574;SDS011;65439;50.948;6.988;2023-07-29T03:05:33;3.97;;;2.40;;
76574;SDS011;65439;50.948;6.988;2023-07-29T03:07:58;4.72;;;2.60;;
76574;SDS011;65439;50.948;6.988;2023-07-29T03:10:23;3.57;;;2.60;;
76574;SDS011;65439;50.948;6.988;2023-07-29T03:12:49;3.90;;;2.27;;
76574;SDS011;65439;50.948;6.988;2023-07-29T03:15:14;4.13;;;2.60;;
76574;SDS011;65439;50.948;6.988;2023-07-29T03:17:39;2.95;;;2.20;;
76574;SDS011;65439;50.948;6.988;2023-07-29T03:20:05;3.83;;;2.20;;
76574;SDS011;65439;50.948;6.988;2023-07-29T03:22:31;6.05;;;3.25;;
76574;SDS011;65439;50.948;6.988;2023-07-29T03:24:56;4.17;;;2.50;;
76574;SDS011;65439;50.948;6.988;2023-07-29T03:27:21;3.60;;;2.27;;
76574;SDS011;65439;50.948;6.988;2023-07-29T03:29:46;3.10;;;2.20;;
76574;SDS011;65439;50.948;6.988;2023-07-29T03:32:12;2.65;;;2.00;;
76574;SDS011;65439;50.948;6.988;2023-07-29T03:34:37;3.00;;;2.33;;
76574;SDS011;65439;50.948;6.988;2023-07-29T03:37:05;3.40;;;2.05;;
76574;SDS011;65439;50.948;6.988;2023-07-29T03:39:30;3.13;;;2.72;;
76574;SDS011;65439;50.948;6.988;2023-07-29T03:41:56;5.63;;;2.87;;
76574;SDS011;65439;50.948;6.988;2023-07-29T03:44:21;3.37;;;2.33;;
76574;SDS011;65439;50.948;6.988;2023-07-29T03:46:46;4.73;;;3.37;;
76574;SDS011;65439;50.948;6.988;2023-07-29T03:49:12;3.00;;;2.33;;
76574;SDS011;65439;50.948;6.988;2023-07-29T03:51:37;3.30;;;2.63;;
76574;SDS011;65439;50.948;6.988;2023-07-29T03:54:02;5.03;;;2.70;;
76574;SDS011;65439;50.948;6.988;2023-07-29T03:56:27;3.27;;;2.97;;
76574;SDS011;65439;50.948;6.988;2023-07-29T03:58:53;3.07;;;2.77;;
76574;SDS011;65439;50.948;6.988;2023-07-29T04:01:18;5.33;;;2.67;;
76574;SDS011;65439;50.948;6.988;2023-07-29T04:03:44;3.55;;;3.25;;
76574;SDS011;65439;50.948;6.988;2023-07-29T04:06:11;4.47;;;3.15;;
76574;SDS011;65439;50.948;6.988;2023-07-29T04:08:36;4.43;;;3.22;;
76574;SDS011;65439;50.948;6.988;2023-07-29T04:11:01;3.60;;;3.30;;
76574;SDS011;65439;50.948;6.988;2023-07-29T04:13:27;5.20;;;3.57;;
76574;SDS011;65439;50.948;6.988;2023-07-29T04:15:52;7.07;;;4.00;;
76574;SDS011;65439;50.948;6.988;2023-07-29T04:18:17;5.07;;;4.03;;
76574;SDS011;65439;50.948;6.988;2023-07-29T04:20:43;6.43;;;4.20;;
76574;SDS011;65439;50.948;6.988;2023-07-29T04:23:08;4.30;;;3.58;;
76574;SDS011;65439;50.948;6.988;2023-07-29T04:25:33;4.20;;;3.60;;
76574;SDS011;65439;50.948;6.988;2023-07-29T04:27:59;5.83;;;3.77;;
76574;SDS011;65439;50.948;6.988;2023-07-29T04:30:24;5.40;;;4.90;;
76574;SDS011;65439;50.948;6.988;2023-07-29T04:32:49;4.72;;;4.03;;
76574;SDS011;65439;50.948;6.988;2023-07-29T04:35:15;5.60;;;3.95;;
76574;SDS011;65439;50.948;6.988;2023-07-29T04:37:40;4.22;;;3.80;;
76574;SDS011;65439;50.948;6.988;2023-07-29T04:40:06;6.37;;;3.70;;
76574;SDS011;65439;50.948;6.988;2023-07-29T04:42:31;6.97;;;4.63;;
76574;SDS011;65439;50.948;6.988;2023-07-29T04:44:57;5.78;;;3.67;;
76574;SDS011;65439;50.948;6.988;2023-07-29T04:47:22;6.47;;;4.20;;
76574;SDS011;65439;50.948;6.988;2023-07-29T04:49:47;6.13;;;4.67;;
76574;SDS011;65439;50.948;6.988;2023-07-29T04:52:13;5.30;;;3.73;;
76574;SDS011;65439;50.948;6.988;2023-07-29T04:54:39;5.43;;;4.55;;
76574;SDS011;65439;50.948;6.988;2023-07-29T04:57:05;6.83;;;3.90;;
76574;SDS011;65439;50.948;6.988;2023-07-29T04:59:30;6.47;;;4.65;;
76574;SDS011;65439;50.948;6.988;2023-07-29T05:01:55;7.30;;;4.90;;
76574;SDS011;65439;50.948;6.988;2023-07-29T05:04:21;7.80;;;4.57;;
76574;SDS011;65439;50.948;6.988;2023-07-29T05:06:46;5.72;;;5.18;;
76574;SDS011;65439;50.948;6.988;2023-07-29T05:09:12;5.90;;;4.10;;
76574;SDS011;65439;50.948;6.988;2023-07-29T05:11:40;7.20;;;5.13;;
76574;SDS011;65439;50.948;6.988;2023-07-29T05:14:06;6.85;;;4.82;;
76574;SDS011;65439;50.948;6.988;2023-07-29T05:16:31;5.37;;;4.87;;
76574;SDS011;65439;50.948;6.988;2023-07-29T05:18:57;5.80;;;4.93;;
76574;SDS011;65439;50.948;6.988;2023-07-29T05:21:22;5.37;;;4.87;;
76574;SDS011;65439;50.948;6.988;2023-07-29T05:23:47;6.77;;;5.13;;
76574;SDS011;65439;50.948;6.988;2023-07-29T05:26:13;5.40;;;4.68;;
76574;SDS011;65439;50.948;6.988;2023-07-29T05:28:38;4.90;;;4.20;;
76574;SDS011;65439;50.948;6.988;2023-07-29T05:31:03;5.60;;;4.93;;
76574;SDS011;65439;50.948;6.988;2023-07-29T05:33:29;6.80;;;5.73;;
76574;SDS011;65439;50.948;6.988;2023-07-29T05:35:54;6.13;;;4.50;;
76574;SDS011;65439;50.948;6.988;2023-07-29T05:38:19;5.20;;;4.70;;
76574;SDS011;65439;50.948;6.988;2023-07-29T05:40:45;7.50;;;5.15;;
76574;SDS011;65439;50.948;6.988;2023-07-29T05:43:10;8.15;;;5.22;;
76574;SDS011;65439;50.948;6.988;2023-07-29T05:45:35;6.10;;;4.80;;
76574;SDS011;65439;50.948;6.988;2023-07-29T05:48:01;5.80;;;4.95;;
76574;SDS011;65439;50.948;6.988;2023-07-29T05:50:26;6.33;;;4.90;;
76574;SDS011;65439;50.948;6.988;2023-07-29T05:52:51;5.75;;;5.15;;
76574;SDS011;65439;50.948;6.988;2023-07-29T05:55:17;5.10;;;4.60;;
76574;SDS011;65439;50.948;6.988;2023-07-29T05:57:42;6.47;;;4.63;;
76574;SDS011;65439;50.948;6.988;2023-07-29T06:00:07;5.67;;;4.27;;
76574;SDS011;65439;50.948;6.988;2023-07-29T06:02:33;5.90;;;4.40;;
76574;SDS011;65439;50.948;6.988;2023-07-29T06:04:59;6.65;;;4.80;;
76574;SDS011;65439;50.948;6.988;2023-07-29T06:07:24;6.20;;;4.77;;
76574;SDS011;65439;50.948;6.988;2023-07-29T06:09:53;5.72;;;3.88;;
76574;SDS011;65439;50.948;6.988;2023-07-29T06:12:20;4.80;;;4.18;;
76574;SDS011;65439;50.948;6.988;2023-07-29T06:14:45;5.53;;;3.80;;
76574;SDS011;65439;50.948;6.988;2023-07-29T06:17:10;5.43;;;4.87;;
76574;SDS011;65439;50.948;6.988;2023-07-29T06:19:36;4.43;;;3.25;;
76574;SDS011;65439;50.948;6.988;2023-07-29T06:22:01;4.40;;;3.45;;
76574;SDS011;65439;50.948;6.988;2023-07-29T06:24:27;5.85;;;3.30;;
76574;SDS011;65439;50.948;6.988;2023-07-29T06:26:52;5.63;;;3.40;;
76574;SDS011;65439;50.948;6.988;2023-07-29T06:29:18;5.73;;;4.03;;
76574;SDS011;65439;50.948;6.988;2023-07-29T06:31:43;4.50;;;3.00;;
76574;SDS011;65439;50.948;6.988;2023-07-29T06:34:08;5.13;;;3.60;;
76574;SDS011;65439;50.948;6.988;2023-07-29T06:36:33;5.33;;;4.07;;
76574;SDS011;65439;50.948;6.988;2023-07-29T06:38:59;3.80;;;3.37;;
76574;SDS011;65439;50.948;6.988;2023-07-29T06:41:24;5.80;;;3.55;;
76574;SDS011;65439;50.948;6.988;2023-07-29T06:43:49;5.10;;;2.67;;
76574;SDS011;65439;50.948;6.988;2023-07-29T06:46:15;3.00;;;2.40;;
76574;SDS011;65439;50.948;6.988;2023-07-29T06:48:40;3.25;;;2.47;;
76574;SDS011;65439;50.948;6.988;2023-07-29T06:51:05;5.07;;;3.03;;
76574;SDS011;65439;50.948;6.988;2023-07-29T06:53:31;3.58;;;2.60;;
76574;SDS011;65439;50.948;6.988;2023-07-29T06:55:56;4.97;;;2.70;;
76574;SDS011;65439;50.948;6.988;2023-07-29T06:58:21;3.90;;;2.35;;
76574;SDS011;65439;50.948;6.988;2023-07-29T07:00:47;3.37;;;1.90;;
76574;SDS011;65439;50.948;6.988;2023-07-29T07:03:12;6.18;;;3.20;;
76574;SDS011;65439;50.948;6.988;2023-07-29T07:05:37;4.10;;;2.47;;
76574;SDS011;65439;50.948;6.988;2023-07-29T07:08:03;3.43;;;2.80;;
76574;SDS011;65439;50.948;6.988;2023-07-29T07:10:28;6.38;;;3.00;;
76574;SDS011;65439;50.948;6.988;2023-07-29T07:12:54;3.72;;;2.60;;
76574;SDS011;65439;50.948;6.988;2023-07-29T07:15:19;4.00;;;2.50;;
76574;SDS011;65439;50.948;6.988;2023-07-29T07:17:44;4.80;;;2.43;;
76574;SDS011;65439;50.948;6.988;2023-07-29T07:20:10;4.07;;;2.53;;
76574;SDS011;65439;50.948;6.988;2023-07-29T07:22:35;6.78;;;2.72;;
76574;SDS011;65439;50.948;6.988;2023-07-29T07:25:01;4.87;;;3.50;;
76574;SDS011;65439;50.948;6.988;2023-07-29T07:27:26;6.17;;;3.13;;
76574;SDS011;65439;50.948;6.988;2023-07-29T07:29:51;4.30;;;2.88;;
76574;SDS011;65439;50.948;6.988;2023-07-29T07:32:16;4.67;;;2.87;;
76574;SDS011;65439;50.948;6.988;2023-07-29T07:34:42;4.77;;;2.80;;
76574;SDS011;65439;50.948;6.988;2023-07-29T07:37:07;2.90;;;2.50;;
76574;SDS011;65439;50.948;6.988;2023-07-29T07:39:32;5.30;;;2.40;;
76574;SDS011;65439;50.948;6.988;2023-07-29T07:41:58;3.88;;;2.22;;
76574;SDS011;65439;50.948;6.988;2023-07-29T07:44:23;5.63;;;2.40;;
76574;SDS011;65439;50.948;6.988;2023-07-29T07:46:51;4.25;;;3.33;;
76574;SDS011;65439;50.948;6.988;2023-07-29T07:49:16;5.40;;;2.83;;
76574;SDS011;65439;50.948;6.988;2023-07-29T07:51:43;3.00;;;2.63;;
76574;SDS011;65439;50.948;6.988;2023-07-29T07:54:08;2.97;;;2.28;;
76574;SDS011;65439;50.948;6.988;2023-07-29T07:56:34;3.17;;;2.87;;
76574;SDS011;65439;50.948;6.988;2023-07-29T07:58:59;3.13;;;2.50;;
76574;SDS011;65439;50.948;6.988;2023-07-29T08:01:24;3.50;;;2.50;;
76574;SDS011;65439;50.948;6.988;2023-07-29T08:03:50;3.73;;;2.27;;
76574;SDS011;65439;50.948;6.988;2023-07-29T08:06:15;7.13;;;4.88;;
76574;SDS011;65439;50.948;6.988;2023-07-29T08:08:40;5.10;;;2.90;;
76574;SDS011;65439;50.948;6.988;2023-07-29T08:11:06;4.80;;;2.73;;
76574;SDS011;65439;50.948;6.988;2023-07-29T08:13:31;5.13;;;2.50;;
76574;SDS011;65439;50.948;6.988;2023-07-29T08:15:56;4.10;;;2.60;;
76574;SDS011;65439;50.948;6.988;2023-07-29T08:18:22;4.50;;;2.70;;
76574;SDS011;65439;50.948;6.988;2023-07-29T08:20:54;5.18;;;2.47;;
76574;SDS011;65439;50.948;6.988;2023-07-29T08:23:20;2.90;;;2.30;;
76574;SDS011;65439;50.948;6.988;2023-07-29T08:25:50;3.58;;;2.38;;
76574;SDS011;65439;50.948;6.988;2023-07-29T08:28:17;3.88;;;3.08;;
76574;SDS011;65439;50.948;6.988;2023-07-29T08:30:42;5.72;;;2.75;;
76574;SDS011;65439;50.948;6.988;2023-07-29T08:33:08;5.70;;;3.23;;
76574;SDS011;65439;50.948;6.988;2023-07-29T08:35:33;3.10;;;2.50;;
76574;SDS011;65439;50.948;6.988;2023-07-29T08:37:58;4.13;;;2.90;;
76574;SDS011;65439;50.948;6.988;2023-07-29T08:40:25;5.35;;;2.58;;
76574;SDS011;65439;50.948;6.988;2023-07-29T08:42:53;3.40;;;2.80;;
76574;SDS011;65439;50.948;6.988;2023-07-29T08:45:19;5.75;;;2.55;;
76574;SDS011;65439;50.948;6.988;2023-07-29T08:47:45;3.17;;;2.83;;
76574;SDS011;65439;50.948;6.988;2023-07-29T08:50:11;2.75;;;2.20;;
76574;SDS011;65439;50.948;6.988;2023-07-29T08:52:36;4.28;;;2.45;;
76574;SDS011;65439;50.948;6.988;2023-07-29T08:55:03;3.97;;;2.50;;
76574;SDS011;65439;50.948;6.988;2023-07-29T08:57:28;6.05;;;2.80;;
76574;SDS011;65439;50.948;6.988;2023-07-29T08:59:54;6.45;;;2.53;;
76574;SDS011;65439;50.948;6.988;2023-07-29T09:02:20;4.10;;;2.70;;
76574;SDS011;65439;50.948;6.988;2023-07-29T09:04:45;4.55;;;2.60;;
76574;SDS011;65439;50.948;6.988;2023-07-29T09:07:11;2.87;;;2.13;;
76574;SDS011;65439;50.948;6.988;2023-07-29T09:09:36;3.35;;;2.15;;
76574;SDS011;65439;50.948;6.988;2023-07-29T09:12:02;4.20;;;2.50;;
76574;SDS011;65439;50.948;6.988;2023-07-29T09:14:28;2.20;;;1.90;;
76574;SDS011;65439;50.948;6.988;2023-07-29T09:16:53;3.88;;;2.38;;
76574;SDS011;65439;50.948;6.988;2023-07-29T09:19:18;2.75;;;2.28;;
76574;SDS011;65439;50.948;6.988;2023-07-29T09:21:45;3.00;;;1.90;;
76574;SDS011;65439;50.948;6.988;2023-07-29T09:24:12;4.20;;;2.25;;
76574;SDS011;65439;50.948;6.988;2023-07-29T09:26:41;2.97;;;2.17;;
76574;SDS011;65439;50.948;6.988;2023-07-29T09:29:13;3.78;;;2.35;;
76574;SDS011;65439;50.948;6.988;2023-07-29T09:31:39;2.60;;;1.90;;
76574;SDS011;65439;50.948;6.988;2023-07-29T09:34:04;3.50;;;2.43;;
76574;SDS011;65439;50.948;6.988;2023-07-29T09:36:31;3.15;;;2.65;;
76574;SDS011;65439;50.948;6.988;2023-07-29T09:38:56;5.07;;;2.95;;
76574;SDS011;65439;50.948;6.988;2023-07-29T09:41:26;3.13;;;2.28;;
76574;SDS011;65439;50.948;6.988;2023-07-29T09:43:56;4.25;;;2.47;;
76574;SDS011;65439;50.948;6.988;2023-07-29T09:46:23;4.97;;;2.33;;
76574;SDS011;65439;50.948;6.988;2023-07-29T09:48:52;4.05;;;3.17;;
76574;SDS011;65439;50.948;6.988;2023-07-29T09:51:18;3.22;;;2.20;;
76574;SDS011;65439;50.948;6.988;2023-07-29T09:53:44;4.63;;;2.60;;
76574;SDS011;65439;50.948;6.988;2023-07-29T09:56:13;4.97;;;2.30;;
76574;SDS011;65439;50.948;6.988;2023-07-29T09:58:38;3.65;;;2.38;;
76574;SDS011;65439;50.948;6.988;2023-07-29T10:01:07;4.75;;;2.22;;
76574;SDS011;65439;50.948;6.988;2023-07-29T10:03:33;3.83;;;2.40;;
76574;SDS011;65439;50.948;6.988;2023-07-29T10:06:03;4.25;;;2.88;;
76574;SDS011;65439;50.948;6.988;2023-07-29T10:08:29;3.03;;;2.10;;
76574;SDS011;65439;50.948;6.988;2023-07-29T10:10:57;4.78;;;2.33;;
76574;SDS011;65439;50.948;6.988;2023-07-29T10:13:24;3.33;;;2.20;;
76574;SDS011;65439;50.948;6.988;2023-07-29T10:15:51;3.63;;;2.05;;
76574;SDS011;65439;50.948;6.988;2023-07-29T10:20:42;3.30;;;2.10;;
76574;SDS011;65439;50.948;6.988;2023-07-29T10:23:08;8.43;;;2.72;;
76574;SDS011;65439;50.948;6.988;2023-07-29T10:25:38;3.63;;;2.55;;
76574;SDS011;65439;50.948;6.988;2023-07-29T10:28:05;3.90;;;2.03;;
76574;SDS011;65439;50.948;6.988;2023-07-29T10:30:31;3.35;;;2.00;;
76574;SDS011;65439;50.948;6.988;2023-07-29T10:33:03;4.95;;;2.60;;
76574;SDS011;65439;50.948;6.988;2023-07-29T10:35:30;4.53;;;2.60;;
76574;SDS011;65439;50.948;6.988;2023-07-29T10:37:57;3.10;;;2.38;;
76574;SDS011;65439;50.948;6.988;2023-07-29T10:40:22;2.58;;;1.98;;
76574;SDS011;65439;50.948;6.988;2023-07-29T10:43:01;4.80;;;1.95;;
76574;SDS011;65439;50.948;6.988;2023-07-29T10:45:28;3.92;;;2.30;;
76574;SDS011;65439;50.948;6.988;2023-07-29T10:48:05;3.28;;;2.50;;
76574;SDS011;65439;50.948;6.988;2023-07-29T10:50:50;5.35;;;2.55;;
76574;SDS011;65439;50.948;6.988;2023-07-29T10:53:16;2.93;;;2.10;;
76574;SDS011;65439;50.948;6.988;2023-07-29T10:55:41;2.90;;;2.17;;
76574;SDS011;65439;50.948;6.988;2023-07-29T10:58:11;5.85;;;2.60;;
76574;SDS011;65439;50.948;6.988;2023-07-29T11:00:39;3.70;;;2.42;;
76574;SDS011;65439;50.948;6.988;2023-07-29T11:03:07;3.00;;;2.15;;
76574;SDS011;65439;50.948;6.988;2023-07-29T11:05:49;6.32;;;3.00;;
76574;SDS011;65439;50.948;6.988;2023-07-29T11:08:16;3.97;;;2.40;;
76574;SDS011;65439;50.948;6.988;2023-07-29T11:10:57;4.00;;;2.20;;
76574;SDS011;65439;50.948;6.988;2023-07-29T11:13:33;2.40;;;2.10;;
76574;SDS011;65439;50.948;6.988;2023-07-29T11:16:00;3.47;;;2.50;;
76574;SDS011;65439;50.948;6.988;2023-07-29T11:18:26;3.15;;;2.40;;
76574;SDS011;65439;50.948;6.988;2023-07-29T11:20:59;4.50;;;2.40;;
76574;SDS011;65439;50.948;6.988;2023-07-29T11:23:29;3.95;;;2.20;;
76574;SDS011;65439;50.948;6.988;2023-07-29T11:25:55;5.25;;;3.25;;
76574;SDS011;65439;50.948;6.988;2023-07-29T11:28:21;3.70;;;2.67;;
76574;SDS011;65439;50.948;6.988;2023-07-29T11:30:47;3.20;;;2.50;;
76574;SDS011;65439;50.948;6.988;2023-07-29T11:33:12;3.10;;;2.35;;
76574;SDS011;65439;50.948;6.988;2023-07-29T11:35:37;2.42;;;1.88;;
76574;SDS011;65439;50.948;6.988;2023-07-29T11:38:03;3.75;;;2.50;;
76574;SDS011;65439;50.948;6.988;2023-07-29T11:40:28;3.00;;;2.10;;
76574;SDS011;65439;50.948;6.988;2023-07-29T11:42:54;3.30;;;2.13;;
76574;SDS011;65439;50.948;6.988;2023-07-29T11:45:20;4.53;;;2.30;;
76574;SDS011;65439;50.948;6.988;2023-07-29T11:47:46;3.65;;;2.03;;
76574;SDS011;65439;50.948;6.988;2023-07-29T11:50:12;3.42;;;1.88;;
76574;SDS011;65439;50.948;6.988;2023-07-29T11:52:42;3.63;;;2.08;;
76574;SDS011;65439;50.948;6.988;2023-07-29T11:55:08;3.33;;;2.45;;
76574;SDS011;65439;50.948;6.988;2023-07-29T11:57:35;5.32;;;2.88;;
76574;SDS011;65439;50.948;6.988;2023-07-29T12:00:02;3.13;;;2.17;;
76574;SDS011;65439;50.948;6.988;2023-07-29T12:02:29;4.32;;;2.45;;
76574;SDS011;65439;50.948;6.988;2023-07-29T12:04:55;3.47;;;2.78;;
76574;SDS011;65439;50.948;6.988;2023-07-29T12:07:22;3.00;;;2.33;;
76574;SDS011;65439;50.948;6.988;2023-07-29T12:09:47;2.50;;;1.90;;
76574;SDS011;65439;50.948;6.988;2023-07-29T12:12:14;3.15;;;2.10;;
76574;SDS011;65439;50.948;6.988;2023-07-29T12:14:43;3.00;;;2.20;;
76574;SDS011;65439;50.948;6.988;2023-07-29T12:17:11;2.75;;;1.80;;
76574;SDS011;65439;50.948;6.988;2023-07-29T12:19:37;4.03;;;3.53;;
76574;SDS011;65439;50.948;6.988;2023-07-29T12:22:05;4.07;;;2.55;;
76574;SDS011;65439;50.948;6.988;2023-07-29T12:24:32;3.50;;;2.08;;
76574;SDS011;65439;50.948;6.988;2023-07-29T12:26:59;3.42;;;2.42;;
76574;SDS011;65439;50.948;6.988;2023-07-29T12:29:24;2.70;;;2.15;;
76574;SDS011;65439;50.948;6.988;2023-07-29T12:31:56;3.78;;;2.65;;
76574;SDS011;65439;50.948;6.988;2023-07-29T12:34:26;3.65;;;2.42;;
76574;SDS011;65439;50.948;6.988;2023-07-29T12:36:56;3.90;;;2.75;;
76574;SDS011;65439;50.948;6.988;2023-07-29T12:39:23;3.47;;;2.55;;
76574;SDS011;65439;50.948;6.988;2023-07-29T12:41:59;2.97;;;2.08;;
76574;SDS011;65439;50.948;6.988;2023-07-29T12:44:30;2.78;;;2.10;;
76574;SDS011;65439;50.948;6.988;2023-07-29T12:46:56;3.53;;;2.15;;
76574;SDS011;65439;50.948;6.988;2023-07-29T12:49:22;2.40;;;2.20;;
76574;SDS011;65439;50.948;6.988;2023-07-29T12:51:47;3.47;;;2.47;;
76574;SDS011;65439;50.948;6.988;2023-07-29T12:54:13;3.20;;;2.00;;
76574;SDS011;65439;50.948;6.988;2023-07-29T12:56:38;3.87;;;2.20;;
76574;SDS011;65439;50.948;6.988;2023-07-29T12:59:04;3.70;;;2.30;;
76574;SDS011;65439;50.948;6.988;2023-07-29T13:01:30;2.80;;;2.33;;
76574;SDS011;65439;50.948;6.988;2023-07-29T13:03:55;3.37;;;2.50;;
76574;SDS011;65439;50.948;6.988;2023-07-29T13:06:21;3.28;;;2.35;;
76574;SDS011;65439;50.948;6.988;2023-07-29T13:08:46;3.38;;;2.30;;
76574;SDS011;65439;50.948;6.988;2023-07-29T13:11:12;2.58;;;2.20;;
76574;SDS011;65439;50.948;6.988;2023-07-29T13:13:38;2.92;;;2.25;;
76574;SDS011;65439;50.948;6.988;2023-07-29T13:16:03;4.93;;;3.40;;
76574;SDS011;65439;50.948;6.988;2023-07-29T13:20:54;3.80;;;1.87;;
76574;SDS011;65439;50.948;6.988;2023-07-29T13:23:19;5.03;;;2.38;;
76574;SDS011;65439;50.948;6.988;2023-07-29T13:25:45;3.00;;;1.90;;
76574;SDS011;65439;50.948;6.988;2023-07-29T13:28:10;3.15;;;1.90;;
76574;SDS011;65439;50.948;6.988;2023-07-29T13:30:38;3.28;;;2.40;;
76574;SDS011;65439;50.948;6.988;2023-07-29T13:33:03;3.45;;;2.60;;
76574;SDS011;65439;50.948;6.988;2023-07-29T13:35:30;3.50;;;2.03;;
76574;SDS011;65439;50.948;6.988;2023-07-29T13:37:56;3.15;;;2.30;;
76574;SDS011;65439;50.948;6.988;2023-07-29T13:40:21;3.40;;;2.40;;
76574;SDS011;65439;50.948;6.988;2023-07-29T13:42:46;3.58;;;2.45;;
76574;SDS011;65439;50.948;6.988;2023-07-29T13:45:12;3.10;;;2.10;;
76574;SDS011;65439;50.948;6.988;2023-07-29T13:47:37;3.90;;;2.30;;
76574;SDS011;65439;50.948;6.988;2023-07-29T13:50:02;15.30;;;4.07;;
76574;SDS011;65439;50.948;6.988;2023-07-29T13:52:28;5.47;;;3.25;;
76574;SDS011;65439;50.948;6.988;2023-07-29T13:54:53;4.40;;;2.45;;
76574;SDS011;65439;50.948;6.988;2023-07-29T13:57:19;6.47;;;2.80;;
76574;SDS011;65439;50.948;6.988;2023-07-29T13:59:44;4.67;;;2.93;;
76574;SDS011;65439;50.948;6.988;2023-07-29T14:02:09;3.70;;;2.33;;
76574;SDS011;65439;50.948;6.988;2023-07-29T14:04:35;3.78;;;3.33;;
76574;SDS011;65439;50.948;6.988;2023-07-29T14:07:00;5.55;;;3.50;;
76574;SDS011;65439;50.948;6.988;2023-07-29T14:09:26;4.37;;;3.40;;
76574;SDS011;65439;50.948;6.988;2023-07-29T14:11:53;5.60;;;3.63;;
76574;SDS011;65439;50.948;6.988;2023-07-29T14:14:19;4.78;;;2.78;;
76574;SDS011;65439;50.948;6.988;2023-07-29T14:16:44;5.03;;;3.43;;
76574;SDS011;65439;50.948;6.988;2023-07-29T14:19:09;5.10;;;3.30;;
76574;SDS011;65439;50.948;6.988;2023-07-29T14:21:35;4.00;;;3.13;;
76574;SDS011;65439;50.948;6.988;2023-07-29T14:24:00;5.37;;;3.20;;
76574;SDS011;65439;50.948;6.988;2023-07-29T14:26:25;5.57;;;3.20;;
76574;SDS011;65439;50.948;6.988;2023-07-29T14:28:51;4.97;;;3.40;;
76574;SDS011;65439;50.948;6.988;2023-07-29T14:31:16;5.70;;;3.30;;
76574;SDS011;65439;50.948;6.988;2023-07-29T14:33:42;3.50;;;2.80;;
76574;SDS011;65439;50.948;6.988;2023-07-29T14:36:08;7.65;;;5.22;;
76574;SDS011;65439;50.948;6.988;2023-07-29T14:38:34;4.97;;;3.17;;
76574;SDS011;65439;50.948;6.988;2023-07-29T14:41:00;8.18;;;3.17;;
76574;SDS011;65439;50.948;6.988;2023-07-29T14:45:50;4.07;;;2.80;;
76574;SDS011;65439;50.948;6.988;2023-07-29T14:48:15;6.67;;;4.20;;
76574;SDS011;65439;50.948;6.988;2023-07-29T14:50:41;6.20;;;3.60;;
76574;SDS011;65439;50.948;6.988;2023-07-29T14:53:08;6.30;;;4.63;;
76574;SDS011;65439;50.948;6.988;2023-07-29T14:55:33;3.85;;;3.00;;
76574;SDS011;65439;50.948;6.988;2023-07-29T14:57:59;3.60;;;2.53;;